Have a Safe July 4th! 

Flight Track Log - Related Links

Times and Time Zones

All times are in EDT time to prevent confusion due to time zone crossing. See the BER8753 flight status page for this flight to view local times or setup timezone preferences in your user account.

Time Position Orientation Groundspeed Altitude Reporting Facility
EDT Latitude Longitude Course Direction KTS MPH feet Rate Location/Type
Fri 01:41:15 PM 48.9554 15.9968 336° Northwest  Level Estimated
Fri 01:42:15 PM 49.0243 15.9492 336° Northwest  Level Estimated
Fri 01:43:15 PM 49.0932 15.9015 336° Northwest  Level Estimated
Fri 01:44:15 PM 49.1620 15.8536 336° Northwest  Level Estimated
Fri 01:45:15 PM 49.2308 15.8055 335° Northwest  Level Estimated
Fri 01:46:15 PM 49.2996 15.7574 335° Northwest  Level Estimated
Fri 01:47:15 PM 49.3684 15.7091 335° Northwest  Level Estimated
Fri 01:48:15 PM 49.4371 15.6607 335° Northwest  Level Estimated
Fri 01:49:15 PM 49.5058 15.6121 335° Northwest  Level Estimated
Fri 01:50:15 PM 49.5746 15.5634 335° Northwest  Level Estimated
Fri 01:51:15 PM 49.6432 15.5146 335° Northwest  Level Estimated
Fri 01:52:15 PM 49.7119 15.4656 335° Northwest  Level Estimated
Fri 01:53:15 PM 49.7805 15.4165 335° Northwest  Level Estimated
Fri 01:54:15 PM 49.8492 15.3673 335° Northwest  Level Estimated
Fri 01:55:15 PM 49.9178 15.3179 335° Northwest  Level Estimated
Fri 01:56:15 PM 49.9864 15.2683 335° Northwest  Level Estimated
Fri 01:57:15 PM 50.0549 15.2187 335° Northwest  Level Estimated
Fri 01:58:15 PM 50.1235 15.1689 335° Northwest  Level Estimated
Fri 01:59:15 PM 50.1920 15.1189 335° Northwest  Level Estimated
Fri 02:00:15 PM 50.2605 15.0688 335° Northwest  Level Estimated
Fri 02:01:15 PM 50.3289 15.0186 335° Northwest  Level Estimated
Fri 02:02:15 PM 50.3974 14.9682 335° Northwest  Level Estimated
Fri 02:03:15 PM 50.4658 14.9176 335° Northwest  Level Estimated
Fri 02:04:15 PM 50.5342 14.8670 335° Northwest  Level Estimated
Fri 02:05:15 PM 50.6026 14.8161 335° Northwest  Level Estimated
Fri 02:06:15 PM 50.6710 14.7651 335° Northwest  Level Estimated
Fri 02:07:15 PM 50.7393 14.7140 335° Northwest  Level Estimated
Fri 02:08:15 PM 50.8077 14.6627 335° Northwest  Level Estimated
Fri 02:09:15 PM 50.8760 14.6113 335° Northwest  Level Estimated
Fri 02:10:15 PM 50.9442 14.5597 335° Northwest  Level Estimated
Fri 02:11:15 PM 51.0125 14.5080 334° Northwest  Level Estimated
Fri 02:12:15 PM 51.0807 14.4561 334° Northwest  Level Estimated
Fri 02:13:15 PM 51.1489 14.4041 334° Northwest  Level Estimated
Fri 02:14:15 PM 51.2171 14.3519 334° Northwest  Level Estimated
Fri 02:15:15 PM 51.2853 14.2996 334° Northwest  Level Estimated
Fri 02:16:15 PM 51.3534 14.2471 334° Northwest  Level Estimated
Fri 02:17:15 PM 51.4215 14.1944 334° Northwest  Level Estimated
Fri 02:18:15 PM 51.4896 14.1416 334° Northwest  Level Estimated
Fri 02:19:15 PM 51.5577 14.0886 334° Northwest  Level Estimated
Fri 02:20:15 PM 51.6257 14.0355 334° Northwest  Level Estimated
Fri 02:21:15 PM 51.6937 13.9822 334° Northwest  Level Estimated
Fri 02:22:15 PM 51.7617 13.9288 334° Northwest  Level Estimated
Fri 02:23:15 PM 51.8297 13.8751 334° Northwest  Level Estimated
Fri 02:24:15 PM 51.8976 13.8214 334° Northwest  Level Estimated
Fri 02:25:15 PM 51.9655 13.7674 334° Northwest  Level Estimated
Fri 02:26:15 PM 52.0335 13.7133 334° Northwest  Level Estimated
Fri 02:27:15 PM 52.1013 13.6591 334° Northwest  Level Estimated
Fri 02:28:15 PM 52.1692 13.6046 334° Northwest  Level Estimated
Fri 02:29:15 PM 52.2370 13.5501 334° Northwest  Level Estimated
Fri 02:30:15 PM 52.3048 13.4953 334° Northwest  Level Estimated
Fri 02:31:15 PM 52.3726 13.4404 334° Northwest  Level Estimated
Fri 02:32:15 PM 52.4403 13.3853 334° Northwest  Level Estimated
Fri 02:33:15 PM 52.5080 13.3300 334° Northwest  Level Estimated
Fri 02:34:15 PM 52.5757 13.2746 153° Southeast  Level Estimated
Fri 02:35:15 PM 52.5080 13.3300 334° Northwest  Level Estimated
Fri 02:36:15 PM 52.5757 13.2746 153° Southeast  Level Estimated
Fri 02:37:15 PM 52.5080 13.3300 334° Northwest  Level Estimated
Fri 02:38:15 PM 52.5757 13.2746 153° Southeast  Level Estimated
Fri 02:39:15 PM 52.5080 13.3300 334° Northwest  Level Estimated
Fri 02:40:15 PM 52.5757 13.2746 153° Southeast  Level Estimated
Fri 02:41:15 PM 52.5080 13.3300 334° Northwest  Level Estimated
Fri 02:42:15 PM 52.5757 13.2746 153° Southeast  Level Estimated
Fri 02:43:15 PM 52.5080 13.3300 334° Northwest  Level Estimated
Fri 02:44:15 PM 52.5757 13.2746 153° Southeast  Level Estimated
Fri 02:45:15 PM 52.5080 13.3300 334° Northwest  Level Estimated
Fri 02:46:15 PM 52.5757 13.2746 153° Southeast  Level Estimated
Fri 02:47:15 PM 52.5080 13.3300 334° Northwest  Level Estimated
Fri 02:48:15 PM 52.5757 13.2746 153° Southeast  Level Estimated
Fri 02:49:15 PM 52.5080 13.3300 153° Southeast  Level Estimated

Login

Don't have an account? Register now (free) for customized features, flight alerts, and more!